createdAt,value
2023-03-22T00:00:27.988Z,86.66
2023-03-22T00:03:16.266Z,86.70
2023-03-22T00:05:44.916Z,86.79
2023-03-22T00:08:13.794Z,86.92
2023-03-22T00:10:42.207Z,87.01
2023-03-22T00:13:11.740Z,87.04
2023-03-22T00:15:44.867Z,87.01
2023-03-22T00:18:17.399Z,86.96
2023-03-22T00:20:53.987Z,86.97
2023-03-22T00:23:25.113Z,86.96
2023-03-22T00:25:53.548Z,86.89
2023-03-22T00:28:22.396Z,86.79
2023-03-22T00:30:56.627Z,86.68
2023-03-22T00:33:29.986Z,86.56
2023-03-22T00:36:04.511Z,86.53
2023-03-22T00:38:43.970Z,86.45
2023-03-22T00:41:22.035Z,86.41
2023-03-22T00:43:51.638Z,86.50
2023-03-22T00:46:22.659Z,86.63
2023-03-22T00:48:51.913Z,86.76
2023-03-22T00:51:21.198Z,86.86
2023-03-22T00:53:51.072Z,86.89
2023-03-22T00:56:19.646Z,86.87
2023-03-22T00:58:56.417Z,86.85
2023-03-22T01:01:25.577Z,86.91
2023-03-22T01:03:56.240Z,86.96
2023-03-22T01:06:25.298Z,87.00
2023-03-22T01:08:55.315Z,87.06
2023-03-22T01:11:23.947Z,87.11
2023-03-22T01:13:52.425Z,87.18
2023-03-22T01:16:21.863Z,87.27
2023-03-22T01:18:51.536Z,87.34
2023-03-22T01:21:19.801Z,87.40
2023-03-22T01:23:48.355Z,87.42
2023-03-22T01:26:18.728Z,87.38
2023-03-22T01:28:46.794Z,87.30
2023-03-22T01:31:17.067Z,87.19
2023-03-22T01:33:45.133Z,87.12
2023-03-22T01:36:13.290Z,87.05
2023-03-22T01:38:41.504Z,86.98
2023-03-22T01:41:10.875Z,86.97
2023-03-22T01:43:43.308Z,86.98
2023-03-22T01:46:12.353Z,87.03
2023-03-22T01:48:48.746Z,87.13
2023-03-22T01:51:22.759Z,87.18
2023-03-22T01:54:17.370Z,87.20
2023-03-22T01:56:51.566Z,87.24
2023-03-22T01:59:26.973Z,87.30
2023-03-22T02:02:15.032Z,87.36
2023-03-22T02:04:50.632Z,87.38
2023-03-22T02:07:27.491Z,87.35
2023-03-22T02:09:57.264Z,87.34
2023-03-22T02:13:13.439Z,87.32
2023-03-22T02:16:11.963Z,87.29
2023-03-22T02:19:29.421Z,87.29
2023-03-22T02:22:04.406Z,87.33
2023-03-22T02:24:47.049Z,87.39
2023-03-22T02:27:26.044Z,87.42
2023-03-22T02:30:10.180Z,87.42
2023-03-22T02:36:39.938Z,87.35
2023-03-22T02:39:26.677Z,87.30
2023-03-22T02:42:32.113Z,87.27
2023-03-22T02:45:24.992Z,87.24
2023-03-22T02:47:59.546Z,87.20
2023-03-22T02:50:35.671Z,87.15
2023-03-22T02:53:21.916Z,87.12
2023-03-22T02:56:08.411Z,87.11
2023-03-22T02:58:45.872Z,87.10
2023-03-22T03:01:26.339Z,87.07
2023-03-22T03:03:59.442Z,87.08
2023-03-22T03:06:32.350Z,87.12
2023-03-22T03:09:05.067Z,87.15
2023-03-22T03:11:38.235Z,87.18
2023-03-22T03:14:06.352Z,87.22
2023-03-22T03:16:39.451Z,87.29
2023-03-22T03:19:23.776Z,87.36
2023-03-22T03:22:31.984Z,87.40
2023-03-22T03:25:06.921Z,87.40
2023-03-22T03:27:41.581Z,87.42
2023-03-22T03:30:23.539Z,87.40
2023-03-22T03:32:59.460Z,87.39
2023-03-22T03:35:38.676Z,87.33
2023-03-22T03:38:11.799Z,87.34
2023-03-22T03:40:53.729Z,87.40
2023-03-22T03:43:25.652Z,87.50
2023-03-22T03:45:55.086Z,87.60
2023-03-22T03:48:28.044Z,87.67
2023-03-22T03:50:58.154Z,87.77
2023-03-22T03:53:28.680Z,87.82
2023-03-22T03:55:56.887Z,87.82
2023-03-22T03:58:25.663Z,87.81
2023-03-22T04:05:11.851Z,87.80
2023-03-22T04:07:40.496Z,87.85
2023-03-22T04:10:09.152Z,87.92
2023-03-22T04:12:37.376Z,87.95
2023-03-22T04:15:13.574Z,87.94
2023-03-22T04:17:41.999Z,87.92
2023-03-22T04:20:12.458Z,87.90
2023-03-22T04:22:41.764Z,87.85
2023-03-22T04:25:12.392Z,87.81
2023-03-22T04:27:51.327Z,87.75
2023-03-22T04:30:20.650Z,87.72
2023-03-22T04:33:07.681Z,87.72
2023-03-22T04:35:57.451Z,87.74
2023-03-22T04:38:31.538Z,87.73
2023-03-22T04:41:00.475Z,87.71
2023-03-22T04:43:47.195Z,87.71
2023-03-22T04:46:18.489Z,87.77
2023-03-22T04:48:51.222Z,87.86
2023-03-22T04:51:19.827Z,87.97
2023-03-22T04:54:06.792Z,88.13
2023-03-22T04:56:35.711Z,88.29
2023-03-22T04:59:07.381Z,88.52
2023-03-22T05:01:36.082Z,88.72
2023-03-22T05:04:11.927Z,88.92
2023-03-22T05:06:40.795Z,89.09
2023-03-22T05:09:14.455Z,89.22
2023-03-22T05:11:42.827Z,89.30
2023-03-22T05:14:21.473Z,89.28
2023-03-22T05:16:49.505Z,89.26
2023-03-22T05:19:18.149Z,89.26
2023-03-22T05:21:49.137Z,89.23
2023-03-22T05:24:17.373Z,89.14
2023-03-22T05:26:53.900Z,89.08
2023-03-22T05:29:24.495Z,88.93
2023-03-22T05:32:06.715Z,88.70
2023-03-22T05:34:36.177Z,88.46
2023-03-22T05:37:16.886Z,87.93
2023-03-22T05:39:54.607Z,87.53
2023-03-22T05:42:27.197Z,87.19
2023-03-22T05:44:56.025Z,86.74
2023-03-22T05:47:24.307Z,85.81
2023-03-22T05:49:58.747Z,84.59
2023-03-22T05:52:27.391Z,83.05
2023-03-22T05:55:24.531Z,81.65
2023-03-22T05:57:56.768Z,81.01
2023-03-22T06:00:27.361Z,80.67
2023-03-22T06:03:18.695Z,80.11
2023-03-22T06:05:54.750Z,79.41
2023-03-22T06:08:28.447Z,78.70
2023-03-22T06:10:58.860Z,78.08
2023-03-22T06:13:28.132Z,77.48
2023-03-22T06:16:01.102Z,77.19
2023-03-22T06:18:34.548Z,76.69
2023-03-22T06:21:09.998Z,76.81
2023-03-22T06:23:39.820Z,75.69
2023-03-22T06:26:11.571Z,75.20
2023-03-22T06:28:42.927Z,73.81
2023-03-22T06:31:12.579Z,72.55
2023-03-22T06:33:49.228Z,72.00
2023-03-22T06:36:26.168Z,72.36
2023-03-22T06:39:17.451Z,71.91
2023-03-22T06:41:46.400Z,71.80
2023-03-22T06:44:15.025Z,71.65
2023-03-22T06:47:04.584Z,72.47
2023-03-22T06:49:53.428Z,72.95
2023-03-22T06:52:27.345Z,73.89
2023-03-22T06:54:57.002Z,73.22
2023-03-22T06:57:26.007Z,73.94
2023-03-22T06:59:54.241Z,73.91
2023-03-22T07:02:22.356Z,73.22
2023-03-22T07:05:20.630Z,73.54
2023-03-22T07:07:48.969Z,73.90
2023-03-22T07:10:17.288Z,73.90
2023-03-22T07:12:45.558Z,73.39
2023-03-22T07:15:17.541Z,73.66
2023-03-22T07:18:08.021Z,73.54
2023-03-22T07:20:41.679Z,73.32
2023-03-22T07:23:13.212Z,73.45
2023-03-22T07:25:48.761Z,73.83
2023-03-22T07:28:27.208Z,73.70
2023-03-22T07:31:12.390Z,73.73
2023-03-22T07:33:48.446Z,73.69
2023-03-22T07:36:16.890Z,73.78
2023-03-22T07:38:45.136Z,72.73
2023-03-22T07:41:16.218Z,72.06
2023-03-22T07:44:04.791Z,72.27
2023-03-22T07:46:43.184Z,70.95
2023-03-22T07:49:23.345Z,69.27
2023-03-22T07:52:14.242Z,67.45
2023-03-22T07:54:42.694Z,67.91
2023-03-22T07:57:11.832Z,68.43
2023-03-22T07:59:45.037Z,67.83
2023-03-22T08:02:13.461Z,67.35
2023-03-22T08:04:53.177Z,66.75
2023-03-22T08:07:43.142Z,66.64
2023-03-22T08:10:12.050Z,66.89
2023-03-22T08:12:41.507Z,66.38
2023-03-22T08:15:17.509Z,68.21
2023-03-22T08:17:49.856Z,68.39
2023-03-22T08:20:28.169Z,68.97
2023-03-22T08:22:59.658Z,68.43
2023-03-22T08:25:47.933Z,69.20
2023-03-22T08:28:18.639Z,69.92
2023-03-22T08:30:48.933Z,70.26
2023-03-22T08:33:17.515Z,70.64
2023-03-22T08:35:47.624Z,70.74
2023-03-22T08:38:15.863Z,70.95
2023-03-22T08:40:48.077Z,70.77
2023-03-22T08:43:19.553Z,71.32
2023-03-22T08:45:47.959Z,70.85
2023-03-22T08:48:17.835Z,71.35
2023-03-22T08:51:01.532Z,71.37
2023-03-22T08:53:45.051Z,71.82
2023-03-22T08:56:47.017Z,71.97
2023-03-22T08:59:33.574Z,71.97
2023-03-22T09:02:28.112Z,72.07
2023-03-22T09:04:56.797Z,72.40
2023-03-22T09:07:27.549Z,73.35
2023-03-22T09:10:04.984Z,73.33
2023-03-22T09:12:33.258Z,73.34
2023-03-22T09:15:02.096Z,72.70
2023-03-22T09:17:31.213Z,72.22
2023-03-22T09:20:11.555Z,72.75
2023-03-22T09:22:41.509Z,72.53
2023-03-22T09:25:12.971Z,72.40
2023-03-22T09:27:43.437Z,72.26
2023-03-22T09:30:12.023Z,72.26
2023-03-22T09:32:40.105Z,72.25
2023-03-22T09:35:08.988Z,72.74
2023-03-22T09:37:45.760Z,73.31
2023-03-22T09:40:14.577Z,72.97
2023-03-22T09:42:48.252Z,73.27
2023-03-22T09:45:35.486Z,72.99
2023-03-22T09:48:12.387Z,73.36
2023-03-22T09:50:46.989Z,73.79
2023-03-22T09:53:17.319Z,73.63
2023-03-22T09:55:56.026Z,73.39
2023-03-22T09:58:46.884Z,73.11
2023-03-22T10:01:39.626Z,71.76
2023-03-22T10:04:44.578Z,71.89
2023-03-22T10:07:28.056Z,72.07
2023-03-22T10:10:12.474Z,72.08
2023-03-22T10:12:40.585Z,71.82
2023-03-22T10:15:17.304Z,71.84
2023-03-22T10:17:54.667Z,72.08
2023-03-22T10:20:41.070Z,71.56
2023-03-22T10:23:21.768Z,71.07
2023-03-22T10:25:50.738Z,71.35
2023-03-22T10:28:23.946Z,71.12
2023-03-22T10:30:55.559Z,71.01
2023-03-22T10:33:43.524Z,69.79
2023-03-22T10:36:15.229Z,69.91
2023-03-22T10:38:49.063Z,70.11
2023-03-22T10:41:20.577Z,70.51
2023-03-22T10:43:55.708Z,70.19
2023-03-22T10:46:27.789Z,69.56
2023-03-22T10:49:00.638Z,69.63
2023-03-22T10:51:39.262Z,69.00
2023-03-22T10:54:13.553Z,69.23
2023-03-22T10:56:42.370Z,69.43
2023-03-22T11:04:37.490Z,68.45
2023-03-22T11:07:05.438Z,68.67
2023-03-22T11:09:33.473Z,68.90
2023-03-22T11:12:03.012Z,67.63
2023-03-22T11:14:33.287Z,67.58
2023-03-22T11:17:10.207Z,67.50
2023-03-22T11:19:38.078Z,66.50
2023-03-22T11:22:31.515Z,66.02
2023-03-22T11:25:01.199Z,66.84
2023-03-22T11:27:36.534Z,67.99
2023-03-22T11:30:25.713Z,68.33
2023-03-22T11:33:26.012Z,67.57
2023-03-22T11:36:01.861Z,68.13
2023-03-22T11:38:41.221Z,68.37
2023-03-22T11:41:14.936Z,68.49
2023-03-22T11:43:49.127Z,68.57
2023-03-22T11:46:21.625Z,68.92
2023-03-22T11:48:53.099Z,68.40
2023-03-22T11:51:31.050Z,67.92
2023-03-22T11:54:13.647Z,66.69
2023-03-22T11:56:45.608Z,67.53
2023-03-22T11:59:16.905Z,67.84
2023-03-22T12:01:58.948Z,66.88
2023-03-22T12:04:31.489Z,66.80
2023-03-22T12:07:06.162Z,66.61
2023-03-22T12:09:45.158Z,67.11
2023-03-22T12:12:18.010Z,66.14
2023-03-22T12:15:06.526Z,66.04
2023-03-22T12:17:44.001Z,65.79
2023-03-22T12:20:18.257Z,66.18
2023-03-22T12:22:52.787Z,66.88
2023-03-22T12:25:30.551Z,66.65
2023-03-22T12:28:07.626Z,67.19
2023-03-22T12:31:03.883Z,66.24
2023-03-22T12:33:43.212Z,66.02
2023-03-22T12:36:19.417Z,66.72
2023-03-22T12:38:56.482Z,65.96
2023-03-22T12:41:40.977Z,65.79
2023-03-22T12:44:30.560Z,65.66
2023-03-22T12:47:08.246Z,65.48
2023-03-22T12:49:41.573Z,65.88
2023-03-22T12:52:19.207Z,65.22
2023-03-22T12:54:51.236Z,63.65
2023-03-22T12:57:19.493Z,64.25
2023-03-22T12:59:51.857Z,64.71
2023-03-22T13:02:52.159Z,64.54
2023-03-22T13:05:20.507Z,64.31
2023-03-22T13:07:48.594Z,65.53
2023-03-22T13:10:36.720Z,63.76
2023-03-22T13:13:07.644Z,63.89
2023-03-22T13:15:42.299Z,63.72
2023-03-22T13:18:49.775Z,62.88
2023-03-22T13:21:21.357Z,63.07
2023-03-22T13:23:55.355Z,65.00
2023-03-22T13:26:33.218Z,64.31
2023-03-22T13:29:09.220Z,62.94
2023-03-22T13:31:44.703Z,62.35
2023-03-22T13:34:21.456Z,62.70
2023-03-22T13:36:53.800Z,62.09
2023-03-22T13:39:25.095Z,62.55
2023-03-22T13:42:06.268Z,63.36
2023-03-22T13:44:43.056Z,63.10
2023-03-22T13:47:31.895Z,64.02
2023-03-22T13:50:14.829Z,63.63
2023-03-22T13:52:53.152Z,63.75
2023-03-22T13:55:43.052Z,63.65
2023-03-22T13:58:36.242Z,63.93
2023-03-22T14:01:29.020Z,62.92
2023-03-22T14:04:01.378Z,62.92
2023-03-22T14:06:36.640Z,62.97
2023-03-22T14:09:16.819Z,62.92
2023-03-22T14:12:04.273Z,63.45
2023-03-22T14:14:40.628Z,62.84
2023-03-22T14:17:21.413Z,61.99
2023-03-22T14:19:51.910Z,62.85
